Time;durP1;ratioP1;P1;durP2;ratioP2;P2;SDS_P1;SDS_P2;PMS_P1;PMS_P2;Temp;Humidity;BMP_temperature;BMP_pressure;BME280_temperature;BME280_humidity;BME280_pressure;Samples;Min_cycle;Max_cycle;Signal;HPM_P1;HPM_P2
2021/10/31 00:01:15;;;;;;;23.40;16.97;;;9.90;89.80;;;;;;5014319;28;20485;-41
2021/10/31 00:03:42;;;;;;;22.17;16.90;;;9.90;89.80;;;;;;5012709;28;21054;-42
2021/10/31 00:06:09;;;;;;;26.53;19.13;;;9.80;89.80;;;;;;5025951;28;20459;-41
2021/10/31 00:08:36;;;;;;;22.43;16.97;;;9.80;89.80;;;;;;5028136;28;20464;-41
2021/10/31 00:11:04;;;;;;;21.30;17.77;;;9.80;89.80;;;;;;5018257;28;20466;-41
2021/10/31 00:13:31;;;;;;;22.97;18.50;;;9.80;89.80;;;;;;5014316;28;20483;-41
2021/10/31 00:15:58;;;;;;;22.60;16.97;;;9.90;89.80;;;;;;5024123;28;20491;-41
2021/10/31 00:18:25;;;;;;;22.57;17.17;;;9.90;89.80;;;;;;5014011;28;20485;-41
2021/10/31 00:20:52;;;;;;;21.33;15.70;;;9.80;89.80;;;;;;5009712;28;20455;-40
2021/10/31 00:23:19;;;;;;;24.47;16.70;;;9.80;89.80;;;;;;5010520;28;20473;-40
2021/10/31 00:25:45;;;;;;;22.33;17.17;;;9.80;89.80;;;;;;5008002;28;20470;-41
2021/10/31 00:28:12;;;;;;;25.20;18.60;;;9.80;89.80;;;;;;5006879;28;21136;-41
2021/10/31 00:30:39;;;;;;;23.07;17.10;;;9.70;89.80;;;;;;5009291;28;20463;-41
2021/10/31 00:33:06;;;;;;;24.80;16.60;;;9.70;89.80;;;;;;5008947;28;20498;-40
2021/10/31 00:35:33;;;;;;;21.67;16.03;;;9.70;89.80;;;;;;4993674;28;20463;-41
2021/10/31 00:38:00;;;;;;;22.60;17.00;;;9.70;89.80;;;;;;4997805;28;20455;-41
2021/10/31 00:40:27;;;;;;;20.90;16.80;;;9.70;89.80;;;;;;5007523;28;20829;-41
2021/10/31 00:42:54;;;;;;;26.10;17.77;;;9.70;89.80;;;;;;4985934;28;20970;-41
2021/10/31 00:45:21;;;;;;;22.10;17.80;;;9.70;89.80;;;;;;4994314;28;21083;-41
2021/10/31 00:47:48;;;;;;;25.93;18.30;;;9.70;89.80;;;;;;5008392;28;20470;-41
2021/10/31 00:50:17;;;;;;;24.30;18.73;;;9.70;89.80;;;;;;5007639;28;20918;-41
2021/10/31 00:52:44;;;;;;;27.47;20.57;;;9.70;89.80;;;;;;5005445;28;20949;-41
2021/10/31 00:55:13;;;;;;;24.83;19.37;;;9.70;89.80;;;;;;5009111;28;21930;-40
2021/10/31 00:57:39;;;;;;;24.77;18.37;;;9.70;89.80;;;;;;5009014;28;20832;-40
2021/10/31 01:00:09;;;;;;;25.97;18.07;;;9.70;89.80;;;;;;5024637;28;20466;-41
2021/10/31 01:02:37;;;;;;;22.40;17.47;;;9.70;89.80;;;;;;5026643;28;20534;-40
2021/10/31 01:05:08;;;;;;;28.03;18.30;;;9.80;89.80;;;;;;5024515;28;20456;-40
2021/10/31 01:08:02;;;;;;;23.60;18.70;;;9.70;89.80;;;;;;5029625;28;20509;-41
2021/10/31 01:10:41;;;;;;;24.00;18.27;;;9.70;89.80;;;;;;5016147;28;20542;-42
2021/10/31 01:13:21;;;;;;;25.47;18.93;;;9.80;89.80;;;;;;5027423;28;20828;-40
2021/10/31 01:15:53;;;;;;;28.43;19.40;;;9.80;89.80;;;;;;5009816;28;20456;-41
2021/10/31 01:18:44;;;;;;;25.63;18.40;;;9.80;89.80;;;;;;5027299;28;20455;-40
2021/10/31 01:21:29;;;;;;;23.27;18.33;;;9.80;89.80;;;;;;5026291;28;20452;-40
2021/10/31 01:24:04;;;;;;;26.43;19.07;;;9.70;89.80;;;;;;5004993;28;20508;-40
2021/10/31 01:26:50;;;;;;;25.70;18.80;;;9.70;89.80;;;;;;5025073;28;20465;-40
2021/10/31 01:29:25;;;;;;;23.47;17.50;;;9.70;89.80;;;;;;5025813;28;20498;-41
2021/10/31 01:32:28;;;;;;;25.97;18.07;;;9.70;89.80;;;;;;5024912;28;20477;-40
2021/10/31 01:35:27;;;;;;;21.90;17.40;;;9.70;89.80;;;;;;5020588;28;21047;-40
2021/10/31 01:37:57;;;;;;;25.97;19.37;;;9.80;89.80;;;;;;5024574;28;20467;-40
2021/10/31 01:40:35;;;;;;;20.90;17.40;;;9.70;89.80;;;;;;5010772;28;20538;-40
2021/10/31 01:43:11;;;;;;;26.40;18.10;;;9.70;89.80;;;;;;5027904;28;20454;-40
2021/10/31 01:45:45;;;;;;;22.87;18.17;;;9.70;89.80;;;;;;5024705;28;20460;-40
2021/10/31 01:48:21;;;;;;;22.80;16.73;;;9.80;89.80;;;;;;5025988;28;20554;-40
2021/10/31 01:50:50;;;;;;;22.40;17.43;;;9.80;89.80;;;;;;5025864;28;20522;-40
2021/10/31 01:53:25;;;;;;;23.17;16.77;;;9.80;89.80;;;;;;5025792;28;20455;-41
2021/10/31 01:56:08;;;;;;;23.20;17.40;;;9.70;89.80;;;;;;5000530;28;20541;-41
2021/10/31 01:58:39;;;;;;;24.40;17.47;;;9.70;89.80;;;;;;4997290;28;20460;-41
2021/10/31 02:01:10;;;;;;;27.50;18.67;;;9.70;89.80;;;;;;5019753;28;20877;-40
2021/10/31 02:03:39;;;;;;;23.73;18.40;;;9.70;89.80;;;;;;5017282;28;20463;-40
2021/10/31 02:06:06;;;;;;;24.03;18.40;;;9.70;89.80;;;;;;4994184;28;20467;-40
2021/10/31 02:08:37;;;;;;;26.00;18.63;;;9.70;89.80;;;;;;5011492;28;20467;-40
2021/10/31 02:11:05;;;;;;;24.57;18.60;;;9.70;89.80;;;;;;5014613;28;20474;-40
2021/10/31 02:13:32;;;;;;;26.27;20.00;;;9.70;89.80;;;;;;5001721;28;20841;-42
2021/10/31 02:15:59;;;;;;;27.10;18.90;;;9.70;89.80;;;;;;5013705;28;20466;-42
2021/10/31 02:18:27;;;;;;;23.20;18.33;;;9.70;89.80;;;;;;5010363;28;20463;-42
2021/10/31 02:20:59;;;;;;;25.27;18.70;;;9.70;89.80;;;;;;5012747;28;20840;-43
2021/10/31 02:23:28;;;;;;;24.30;17.97;;;9.70;89.80;;;;;;5012213;28;20495;-43
2021/10/31 02:25:56;;;;;;;24.37;17.50;;;9.70;89.80;;;;;;5015528;28;20462;-43
2021/10/31 02:28:23;;;;;;;23.20;17.63;;;9.80;89.80;;;;;;5009623;28;20518;-42
2021/10/31 02:30:50;;;;;;;24.77;18.80;;;9.70;89.80;;;;;;4996944;28;20958;-42
2021/10/31 02:33:17;;;;;;;22.20;17.27;;;9.80;89.80;;;;;;4995659;28;20466;-42
2021/10/31 02:35:45;;;;;;;21.13;16.80;;;9.80;89.80;;;;;;5007911;28;20464;-42
2021/10/31 02:38:12;;;;;;;24.73;18.77;;;9.70;89.80;;;;;;5006960;28;20459;-43
2021/10/31 02:40:39;;;;;;;21.40;16.47;;;9.60;89.80;;;;;;5015558;28;20462;-43
2021/10/31 02:43:06;;;;;;;23.30;17.33;;;9.60;89.80;;;;;;5012519;28;20475;-42
2021/10/31 02:45:33;;;;;;;20.07;15.90;;;9.70;89.80;;;;;;4979176;28;20458;-42
2021/10/31 02:48:11;;;;;;;22.13;17.93;;;9.70;89.80;;;;;;5011855;28;21052;-42
2021/10/31 02:50:41;;;;;;;21.67;16.93;;;9.60;89.80;;;;;;5014178;28;20977;-42
2021/10/31 02:53:32;;;;;;;18.07;14.97;;;9.50;89.80;;;;;;4997441;28;20459;-42
2021/10/31 02:56:24;;;;;;;23.27;16.47;;;9.50;89.80;;;;;;5027339;28;21047;-41
2021/10/31 02:59:00;;;;;;;22.63;17.17;;;9.50;89.80;;;;;;5026378;28;20822;-41
2021/10/31 03:01:28;;;;;;;22.90;17.60;;;9.50;89.80;;;;;;5021189;28;20494;-41
2021/10/31 03:03:57;;;;;;;21.90;17.27;;;9.50;89.80;;;;;;5015030;28;20501;-42
2021/10/31 03:06:24;;;;;;;22.43;16.77;;;9.40;89.80;;;;;;5017193;28;20466;-42
2021/10/31 03:08:51;;;;;;;19.17;17.03;;;9.40;89.80;;;;;;5004658;28;20471;-42
2021/10/31 03:11:18;;;;;;;21.33;16.63;;;9.40;89.80;;;;;;5016554;28;20490;-42
2021/10/31 03:13:45;;;;;;;21.03;16.17;;;9.40;89.80;;;;;;5004306;28;20470;-42
2021/10/31 03:16:12;;;;;;;18.40;15.33;;;9.40;89.20;;;;;;5020495;28;20466;-42
2021/10/31 03:18:39;;;;;;;17.83;15.07;;;9.40;89.40;;;;;;5013995;28;20467;-42
2021/10/31 03:21:07;;;;;;;15.93;12.93;;;9.30;89.50;;;;;;5010854;28;20942;-42
2021/10/31 03:23:33;;;;;;;21.87;15.30;;;9.30;89.70;;;;;;4993759;28;20479;-42
2021/10/31 03:26:01;;;;;;;18.17;15.30;;;9.30;89.70;;;;;;5009057;28;20455;-42
2021/10/31 03:28:28;;;;;;;17.53;14.57;;;9.20;89.80;;;;;;5013941;28;20494;-42
2021/10/31 03:30:54;;;;;;;18.20;14.90;;;9.20;89.80;;;;;;5010235;28;20474;-42
2021/10/31 03:33:22;;;;;;;19.60;14.80;;;9.20;89.80;;;;;;5011521;28;20503;-42
2021/10/31 03:35:48;;;;;;;18.27;13.90;;;9.20;89.80;;;;;;4990051;28;20495;-42
2021/10/31 03:38:15;;;;;;;20.60;16.00;;;9.20;89.80;;;;;;4992092;28;20463;-42
2021/10/31 03:40:42;;;;;;;21.50;14.93;;;9.10;89.80;;;;;;5014301;28;21259;-42
2021/10/31 03:43:09;;;;;;;16.93;13.70;;;9.20;89.70;;;;;;5012206;28;20455;-42
2021/10/31 03:45:38;;;;;;;17.67;14.50;;;9.10;89.50;;;;;;5011675;28;20463;-42
2021/10/31 03:48:05;;;;;;;19.27;14.70;;;9.10;89.30;;;;;;5010266;28;20816;-42
2021/10/31 03:50:32;;;;;;;18.10;15.07;;;9.10;89.20;;;;;;5008096;28;20463;-42
2021/10/31 03:52:58;;;;;;;18.70;13.90;;;9.00;89.40;;;;;;5014497;28;20776;-42
2021/10/31 03:55:25;;;;;;;20.53;15.47;;;9.00;89.60;;;;;;5016061;28;20616;-42
2021/10/31 03:57:52;;;;;;;17.03;13.87;;;9.00;89.60;;;;;;5022992;28;20467;-42
2021/10/31 04:00:19;;;;;;;16.53;13.97;;;8.90;89.60;;;;;;5026418;28;20961;-42
2021/10/31 04:02:46;;;;;;;18.03;14.53;;;8.90;89.70;;;;;;5026343;28;20452;-41
2021/10/31 04:05:16;;;;;;;19.50;15.30;;;8.90;89.60;;;;;;5009203;28;20978;-41
2021/10/31 04:07:43;;;;;;;18.90;15.70;;;9.00;89.50;;;;;;5018072;28;20471;-41
2021/10/31 04:10:10;;;;;;;18.00;13.90;;;8.90;89.20;;;;;;5007669;28;20521;-41
2021/10/31 04:12:37;;;;;;;18.53;14.43;;;8.90;89.50;;;;;;5006820;28;21149;-41
2021/10/31 04:15:05;;;;;;;19.90;16.43;;;8.90;89.40;;;;;;5011303;28;20484;-42
2021/10/31 04:17:33;;;;;;;20.33;14.80;;;8.80;89.60;;;;;;4997871;28;20463;-42
2021/10/31 04:20:00;;;;;;;18.87;15.67;;;8.80;89.70;;;;;;5009414;28;20830;-42
2021/10/31 04:22:28;;;;;;;20.30;15.30;;;8.80;89.60;;;;;;5008646;28;20468;-42
2021/10/31 04:24:55;;;;;;;19.93;15.00;;;8.70;89.70;;;;;;5009120;28;20561;-43
2021/10/31 04:27:22;;;;;;;21.83;14.73;;;8.80;89.80;;;;;;5001415;28;20536;-43
2021/10/31 04:29:49;;;;;;;21.53;14.73;;;8.80;89.70;;;;;;5015313;28;20956;-43
2021/10/31 04:32:15;;;;;;;20.90;15.57;;;8.80;89.50;;;;;;5012467;28;20842;-43
2021/10/31 04:34:42;;;;;;;16.20;13.87;;;8.80;89.60;;;;;;5008670;28;21072;-43
2021/10/31 04:37:09;;;;;;;22.87;16.70;;;8.80;89.70;;;;;;5008348;28;20460;-43
2021/10/31 04:39:36;;;;;;;21.87;15.20;;;8.70;89.80;;;;;;5010216;28;20459;-43
2021/10/31 04:42:07;;;;;;;17.13;13.57;;;8.80;89.80;;;;;;5000069;28;20455;-43
2021/10/31 04:44:34;;;;;;;20.47;15.33;;;8.70;89.80;;;;;;5005960;28;20773;-43
2021/10/31 04:47:01;;;;;;;21.73;14.80;;;8.80;89.80;;;;;;5014586;28;21179;-43
2021/10/31 04:49:29;;;;;;;19.93;15.23;;;8.70;89.80;;;;;;5009237;28;20467;-43
2021/10/31 04:51:56;;;;;;;29.40;17.70;;;8.70;89.80;;;;;;5013961;28;20469;-42
2021/10/31 04:54:23;;;;;;;24.83;17.30;;;8.70;89.80;;;;;;4992956;28;20487;-42
2021/10/31 04:56:50;;;;;;;23.33;16.70;;;8.70;89.80;;;;;;5018869;28;20464;-42
2021/10/31 04:59:17;;;;;;;25.57;17.83;;;8.70;89.80;;;;;;5013657;28;20461;-42
2021/10/31 05:01:46;;;;;;;32.37;17.90;;;8.70;89.80;;;;;;5019835;28;20464;-42
2021/10/31 05:04:14;;;;;;;23.50;17.50;;;8.70;89.80;;;;;;5009463;28;21051;-42
2021/10/31 05:06:40;;;;;;;26.17;18.53;;;8.80;89.80;;;;;;5010421;28;20459;-42
2021/10/31 05:09:07;;;;;;;25.90;17.90;;;8.80;89.80;;;;;;5011317;28;21103;-41
2021/10/31 05:11:34;;;;;;;24.37;18.53;;;8.80;89.80;;;;;;4992020;28;20470;-42
2021/10/31 05:14:01;;;;;;;25.83;19.00;;;8.80;89.80;;;;;;5007232;28;20463;-42
2021/10/31 05:16:28;;;;;;;21.03;16.77;;;8.80;89.80;;;;;;4995483;28;20831;-42
2021/10/31 05:18:56;;;;;;;24.37;16.67;;;8.80;89.80;;;;;;5006564;28;20451;-42
2021/10/31 05:21:23;;;;;;;21.20;17.20;;;8.90;89.80;;;;;;5006495;28;20997;-42
2021/10/31 05:23:50;;;;;;;24.90;16.83;;;8.90;89.80;;;;;;5009623;28;20455;-42
2021/10/31 05:26:16;;;;;;;21.37;16.93;;;8.90;89.80;;;;;;5014561;28;20469;-42
2021/10/31 05:28:43;;;;;;;25.83;18.00;;;8.90;89.80;;;;;;5014984;28;21037;-42
2021/10/31 05:31:10;;;;;;;25.97;18.70;;;8.90;89.80;;;;;;5011067;28;20454;-42
2021/10/31 05:33:37;;;;;;;25.87;17.90;;;9.00;89.80;;;;;;5010054;28;20945;-42
2021/10/31 05:36:04;;;;;;;26.20;17.67;;;9.00;89.80;;;;;;5007272;28;21021;-42
2021/10/31 05:38:31;;;;;;;29.00;18.10;;;9.00;89.80;;;;;;5007498;28;20538;-42
2021/10/31 05:40:58;;;;;;;30.20;18.10;;;9.00;89.80;;;;;;4995967;28;20475;-42
2021/10/31 05:43:25;;;;;;;23.50;17.07;;;9.00;89.80;;;;;;5009397;28;20463;-42
2021/10/31 05:45:52;;;;;;;26.47;18.33;;;9.00;89.80;;;;;;5009805;28;20477;-42
2021/10/31 05:48:19;;;;;;;29.23;18.90;;;9.00;89.80;;;;;;5025913;28;20907;-41
2021/10/31 05:50:46;;;;;;;28.63;17.87;;;9.00;89.80;;;;;;5024127;28;20467;-41
2021/10/31 05:53:13;;;;;;;28.37;18.73;;;9.10;89.80;;;;;;5025303;28;20463;-41
2021/10/31 05:55:39;;;;;;;27.90;19.10;;;9.10;89.80;;;;;;5018948;28;21041;-41
2021/10/31 05:58:07;;;;;;;29.10;18.47;;;9.10;89.80;;;;;;5029928;28;20459;-41
2021/10/31 06:00:33;;;;;;;33.97;20.33;;;9.10;89.80;;;;;;5025787;28;20991;-41
2021/10/31 06:03:00;;;;;;;27.70;18.80;;;9.10;89.80;;;;;;5025833;28;20451;-41
2021/10/31 06:05:28;;;;;;;27.87;19.30;;;9.10;89.80;;;;;;5017142;28;20854;-41
2021/10/31 06:07:56;;;;;;;25.83;18.70;;;9.10;89.80;;;;;;5019871;28;20463;-41
2021/10/31 06:10:27;;;;;;;29.20;18.90;;;9.10;89.80;;;;;;5006615;28;20878;-40
2021/10/31 06:12:54;;;;;;;30.93;19.80;;;9.10;89.80;;;;;;5014538;28;20462;-40
2021/10/31 06:15:23;;;;;;;27.63;18.80;;;9.10;89.80;;;;;;5009095;28;20846;-40
2021/10/31 06:17:50;;;;;;;28.23;18.83;;;9.10;89.80;;;;;;5020840;28;20929;-41
2021/10/31 06:20:17;;;;;;;34.23;19.80;;;9.10;89.80;;;;;;5027730;28;20467;-41
2021/10/31 06:22:44;;;;;;;31.97;18.73;;;9.20;89.80;;;;;;5026107;28;20465;-42
2021/10/31 06:25:11;;;;;;;29.30;19.53;;;9.20;89.80;;;;;;5003742;28;20491;-42
2021/10/31 06:27:39;;;;;;;26.57;18.07;;;9.20;89.80;;;;;;5029297;28;20459;-42
2021/10/31 06:30:07;;;;;;;27.40;18.87;;;9.20;89.80;;;;;;5025719;28;20464;-42
2021/10/31 06:32:34;;;;;;;27.90;18.63;;;9.30;89.80;;;;;;5029274;28;20459;-42
2021/10/31 06:35:02;;;;;;;34.53;20.50;;;9.30;89.80;;;;;;5029106;28;20566;-42
2021/10/31 06:37:29;;;;;;;30.80;19.10;;;9.30;89.80;;;;;;5012712;28;20467;-42
2021/10/31 06:39:56;;;;;;;25.73;18.97;;;9.40;89.80;;;;;;5013614;28;20509;-42
2021/10/31 06:42:26;;;;;;;28.00;18.33;;;9.30;89.80;;;;;;5006909;28;21257;-42
2021/10/31 06:44:53;;;;;;;29.60;19.13;;;9.40;89.80;;;;;;5013071;28;21137;-42
2021/10/31 06:47:20;;;;;;;25.80;17.90;;;9.30;89.80;;;;;;4998444;28;21536;-42
2021/10/31 06:49:47;;;;;;;31.73;19.77;;;9.30;89.80;;;;;;5009064;28;20459;-42
2021/10/31 06:52:15;;;;;;;34.50;18.67;;;9.30;89.80;;;;;;5003955;28;20464;-42
2021/10/31 06:54:42;;;;;;;25.77;17.93;;;9.30;89.80;;;;;;4989113;28;20495;-42
2021/10/31 06:57:09;;;;;;;34.80;20.03;;;9.30;89.80;;;;;;5006944;28;20478;-42
2021/10/31 06:59:36;;;;;;;35.60;22.10;;;9.30;89.80;;;;;;5007251;28;20459;-42
2021/10/31 07:02:03;;;;;;;35.13;20.57;;;9.30;89.80;;;;;;5019726;28;20804;-42
2021/10/31 07:04:30;;;;;;;24.53;19.00;;;9.40;89.80;;;;;;5021703;28;21061;-42
2021/10/31 07:06:57;;;;;;;22.77;17.93;;;9.40;89.80;;;;;;5018203;28;20458;-42
2021/10/31 07:09:24;;;;;;;27.93;17.43;;;9.40;89.80;;;;;;5022526;28;20554;-42
2021/10/31 07:11:51;;;;;;;27.93;17.87;;;9.40;89.80;;;;;;5025571;28;20559;-42
2021/10/31 07:14:17;;;;;;;24.77;19.33;;;9.40;89.80;;;;;;5008683;28;20467;-42
2021/10/31 07:16:44;;;;;;;24.83;17.40;;;9.40;89.80;;;;;;5018093;28;20511;-43
2021/10/31 07:19:12;;;;;;;36.43;19.83;;;9.40;89.80;;;;;;5028916;28;20950;-43
2021/10/31 07:21:38;;;;;;;27.07;20.70;;;9.50;89.80;;;;;;5010302;28;20450;-43
2021/10/31 07:24:06;;;;;;;30.03;18.57;;;9.50;89.80;;;;;;5024857;28;20467;-43
2021/10/31 07:26:33;;;;;;;23.07;18.33;;;9.50;89.80;;;;;;4996477;28;20475;-43
2021/10/31 07:29:07;;;;;;;28.80;21.03;;;9.50;89.80;;;;;;4994795;28;20488;-43
2021/10/31 07:31:36;;;;;;;24.87;17.93;;;9.60;89.80;;;;;;5010052;28;20470;-43
2021/10/31 07:34:04;;;;;;;31.10;20.53;;;9.60;89.80;;;;;;5005067;28;20855;-43
2021/10/31 07:36:31;;;;;;;32.10;21.77;;;9.60;89.80;;;;;;5019706;28;20489;-43
2021/10/31 07:38:58;;;;;;;32.07;20.70;;;9.70;89.80;;;;;;5010279;28;22318;-43
2021/10/31 07:41:25;;;;;;;35.33;22.60;;;9.70;89.80;;;;;;5010466;28;20456;-43
2021/10/31 07:43:53;;;;;;;37.00;23.23;;;9.70;89.80;;;;;;5004461;28;20461;-43
2021/10/31 07:46:21;;;;;;;34.30;21.83;;;9.80;89.80;;;;;;5014574;28;20466;-43
2021/10/31 07:48:49;;;;;;;31.77;21.53;;;9.80;89.80;;;;;;5005666;28;20467;-42
2021/10/31 07:51:35;;;;;;;29.43;21.03;;;9.90;89.80;;;;;;5030973;28;20463;-41
2021/10/31 07:54:11;;;;;;;37.07;20.67;;;9.90;89.80;;;;;;5018573;28;20460;-41
2021/10/31 07:56:38;;;;;;;31.07;20.00;;;10.00;89.80;;;;;;5024857;28;20915;-41
2021/10/31 07:59:05;;;;;;;30.87;19.93;;;10.10;89.80;;;;;;5011684;28;20454;-41
2021/10/31 08:01:31;;;;;;;26.77;19.63;;;10.10;89.80;;;;;;5006690;28;20967;-41
2021/10/31 08:03:58;;;;;;;29.20;20.70;;;10.20;89.80;;;;;;5015335;28;20459;-41
2021/10/31 08:06:25;;;;;;;26.80;19.93;;;10.20;89.80;;;;;;5026011;28;20467;-41
2021/10/31 08:08:52;;;;;;;28.47;20.90;;;10.30;89.80;;;;;;5027121;28;20786;-41
2021/10/31 08:11:19;;;;;;;25.83;19.00;;;10.30;89.80;;;;;;5025952;28;20470;-41
2021/10/31 08:13:46;;;;;;;23.63;17.43;;;10.40;89.80;;;;;;5025852;28;20490;-41
2021/10/31 08:16:13;;;;;;;25.37;19.10;;;10.40;89.80;;;;;;5025682;28;20483;-41
2021/10/31 08:18:40;;;;;;;29.30;18.90;;;10.50;89.80;;;;;;5008064;28;20580;-41
2021/10/31 08:21:09;;;;;;;30.20;20.47;;;10.50;89.80;;;;;;5024463;28;22124;-41
2021/10/31 08:23:36;;;;;;;32.40;22.67;;;10.60;89.80;;;;;;5016493;28;20463;-41
2021/10/31 08:26:03;;;;;;;29.10;21.80;;;10.60;89.80;;;;;;5025781;28;20455;-41
2021/10/31 08:28:33;;;;;;;30.57;23.10;;;10.60;89.80;;;;;;5024447;28;20811;-41
2021/10/31 08:31:00;;;;;;;25.30;19.57;;;10.70;89.80;;;;;;5002301;28;20467;-41
2021/10/31 08:33:33;;;;;;;31.03;20.90;;;10.80;89.80;;;;;;5029612;28;20459;-41
2021/10/31 08:36:04;;;;;;;28.10;20.07;;;10.80;89.80;;;;;;5027712;28;20581;-41
2021/10/31 08:38:31;;;;;;;30.47;22.27;;;10.90;89.80;;;;;;5026037;28;20449;-41
2021/10/31 08:41:00;;;;;;;29.20;20.00;;;10.90;89.80;;;;;;5021568;28;20539;-41
2021/10/31 08:43:27;;;;;;;33.97;21.77;;;11.00;89.80;;;;;;5025507;28;20458;-41
2021/10/31 08:45:55;;;;;;;31.33;21.30;;;11.10;89.80;;;;;;5019567;28;20843;-41
2021/10/31 08:48:22;;;;;;;30.37;21.20;;;11.10;89.80;;;;;;5009974;28;20835;-41
2021/10/31 08:50:49;;;;;;;28.93;22.10;;;11.20;89.80;;;;;;5027532;28;20929;-41
2021/10/31 08:53:17;;;;;;;31.60;21.83;;;11.20;89.80;;;;;;5024646;28;21337;-41
2021/10/31 08:55:45;;;;;;;30.30;22.37;;;11.40;89.80;;;;;;5025026;28;20483;-41
2021/10/31 08:58:12;;;;;;;34.83;22.63;;;11.40;89.80;;;;;;5024570;28;20447;-41
2021/10/31 09:00:40;;;;;;;30.70;22.40;;;11.50;89.80;;;;;;5022149;28;20456;-41
2021/10/31 09:03:07;;;;;;;33.37;22.97;;;11.50;89.80;;;;;;5006418;28;20897;-42
2021/10/31 09:05:36;;;;;;;30.83;23.10;;;11.60;89.80;;;;;;5019133;28;20560;-42
2021/10/31 09:08:03;;;;;;;39.63;24.57;;;11.70;89.80;;;;;;5015332;28;20546;-42
2021/10/31 09:10:30;;;;;;;35.33;24.77;;;11.80;89.80;;;;;;5019358;28;21534;-42
2021/10/31 09:12:58;;;;;;;37.60;25.40;;;11.90;89.80;;;;;;5024378;28;20467;-42
2021/10/31 09:15:26;;;;;;;30.60;23.90;;;12.00;89.80;;;;;;5022720;28;20963;-41
2021/10/31 09:17:53;;;;;;;33.43;24.87;;;12.10;89.80;;;;;;5026498;28;20461;-42
2021/10/31 09:20:25;;;;;;;38.40;26.23;;;12.20;89.80;;;;;;5012513;28;20464;-42
2021/10/31 09:22:55;;;;;;;37.33;25.77;;;12.30;89.80;;;;;;5026739;28;20531;-42
2021/10/31 09:25:24;;;;;;;33.57;24.23;;;12.40;89.80;;;;;;5026157;28;20531;-42
2021/10/31 09:27:53;;;;;;;30.00;23.37;;;12.40;89.80;;;;;;5018836;28;20457;-42
2021/10/31 09:30:25;;;;;;;34.13;23.63;;;12.50;89.80;;;;;;5023876;28;20978;-42
2021/10/31 09:32:53;;;;;;;32.23;24.53;;;12.60;89.80;;;;;;5024043;28;20467;-42
2021/10/31 09:35:23;;;;;;;28.50;22.70;;;12.70;89.80;;;;;;5024971;28;20459;-42
2021/10/31 09:37:54;;;;;;;31.63;24.80;;;12.80;89.80;;;;;;5024777;28;20464;-42
2021/10/31 09:40:22;;;;;;;32.77;23.70;;;12.80;89.80;;;;;;5006354;28;20471;-42
2021/10/31 09:42:51;;;;;;;33.07;23.17;;;12.90;89.80;;;;;;5009051;28;20543;-42
2021/10/31 09:45:20;;;;;;;32.80;23.57;;;12.90;89.80;;;;;;5022999;28;20487;-42
2021/10/31 09:48:03;;;;;;;32.53;23.60;;;13.10;89.80;;;;;;5028453;28;20483;-42
2021/10/31 09:50:34;;;;;;;30.37;22.43;;;13.20;89.80;;;;;;5003815;28;20465;-39
2021/10/31 09:53:01;;;;;;;31.40;23.80;;;13.20;89.80;;;;;;5025137;28;20462;-40
2021/10/31 09:55:29;;;;;;;31.83;24.03;;;13.30;89.80;;;;;;5025060;28;20466;-40
2021/10/31 09:57:57;;;;;;;30.87;24.07;;;13.40;89.80;;;;;;5020791;28;20454;-40
2021/10/31 10:00:51;;;;;;;32.57;23.40;;;13.50;89.80;;;;;;5029335;28;20450;-41
2021/10/31 10:03:25;;;;;;;28.77;21.63;;;13.60;89.80;;;;;;5006751;28;21106;-41
2021/10/31 10:06:11;;;;;;;35.30;23.20;;;13.60;89.80;;;;;;5021903;28;20462;-41
2021/10/31 10:08:39;;;;;;;31.60;22.53;;;13.70;89.80;;;;;;5026025;28;20463;-41
2021/10/31 10:11:19;;;;;;;28.80;20.80;;;13.70;89.80;;;;;;5025870;28;21063;-42
2021/10/31 10:13:46;;;;;;;27.67;22.47;;;13.80;89.80;;;;;;5024654;28;20570;-41
2021/10/31 10:16:40;;;;;;;27.27;20.47;;;13.80;89.80;;;;;;5023244;28;20537;-41
2021/10/31 10:19:18;;;;;;;26.17;19.03;;;13.80;89.80;;;;;;5022066;28;20542;-41
2021/10/31 10:21:56;;;;;;;24.17;18.70;;;13.90;89.80;;;;;;5018454;28;20456;-41
2021/10/31 10:24:23;;;;;;;19.90;16.37;;;13.90;89.80;;;;;;5008093;28;20462;-41
2021/10/31 10:26:55;;;;;;;14.47;12.37;;;14.00;89.80;;;;;;5023686;28;20542;-42
2021/10/31 10:29:39;;;;;;;14.40;10.70;;;14.00;89.80;;;;;;5021588;28;21021;-42
2021/10/31 10:32:16;;;;;;;10.37;8.67;;;14.00;89.80;;;;;;5021661;28;20463;-42
2021/10/31 10:34:47;;;;;;;11.00;9.90;;;14.00;89.80;;;;;;5030517;28;20455;-42
2021/10/31 10:37:18;;;;;;;11.00;8.60;;;14.10;89.80;;;;;;5026659;28;20493;-42
2021/10/31 10:39:51;;;;;;;9.90;8.40;;;14.10;89.80;;;;;;5030599;28;20451;-42
2021/10/31 10:42:23;;;;;;;10.50;9.17;;;14.30;89.80;;;;;;5013163;28;20482;-42
2021/10/31 10:44:55;;;;;;;9.57;8.63;;;14.30;89.80;;;;;;5024598;28;20524;-42
2021/10/31 10:47:23;;;;;;;9.10;8.10;;;14.40;89.80;;;;;;5012653;28;20470;-42
2021/10/31 10:49:52;;;;;;;10.70;8.83;;;14.50;89.80;;;;;;5015243;28;21217;-42
2021/10/31 10:52:25;;;;;;;9.47;8.30;;;14.60;89.80;;;;;;5025089;28;20905;-42
2021/10/31 10:54:53;;;;;;;11.60;8.30;;;14.70;89.80;;;;;;5008148;28;20825;-42
2021/10/31 10:57:24;;;;;;;10.63;9.60;;;14.80;89.80;;;;;;5025530;28;21099;-42
2021/10/31 11:00:01;;;;;;;8.53;7.63;;;14.90;89.80;;;;;;5006406;28;20546;-42
2021/10/31 11:02:28;;;;;;;9.07;8.20;;;14.90;89.80;;;;;;5024499;28;20494;-42
2021/10/31 11:04:58;;;;;;;9.13;8.20;;;14.90;89.80;;;;;;5025796;28;20452;-42
2021/10/31 11:07:46;;;;;;;8.63;7.60;;;15.00;89.80;;;;;;5030965;28;20874;-42
2021/10/31 11:10:29;;;;;;;7.63;6.83;;;15.10;89.30;;;;;;5026462;28;20467;-43
2021/10/31 11:12:59;;;;;;;7.47;6.77;;;15.10;88.50;;;;;;5027357;28;20470;-42
2021/10/31 11:15:31;;;;;;;7.37;6.60;;;15.20;88.10;;;;;;5024208;28;20594;-42
2021/10/31 11:18:01;;;;;;;7.33;6.60;;;15.30;88.20;;;;;;5005812;28;20571;-42
2021/10/31 11:20:32;;;;;;;8.50;6.30;;;15.40;88.30;;;;;;5030089;28;20522;-42
2021/10/31 11:23:03;;;;;;;7.20;6.50;;;15.40;87.90;;;;;;5027217;28;20466;-42
2021/10/31 11:25:31;;;;;;;6.60;6.00;;;15.50;87.50;;;;;;5027937;28;20447;-42
2021/10/31 11:28:02;;;;;;;6.70;5.67;;;15.50;87.10;;;;;;5027884;28;20566;-42
2021/10/31 11:30:30;;;;;;;7.93;5.23;;;15.60;87.40;;;;;;5028053;28;20460;-42
2021/10/31 11:32:58;;;;;;;8.57;6.50;;;15.70;87.20;;;;;;5026178;28;20464;-42
2021/10/31 11:35:27;;;;;;;8.23;5.60;;;15.70;87.20;;;;;;5029035;28;20475;-42
2021/10/31 11:38:04;;;;;;;11.33;5.80;;;15.80;87.40;;;;;;5030852;28;21163;-42
2021/10/31 11:40:40;;;;;;;7.63;6.20;;;15.90;87.00;;;;;;5029298;28;20449;-42
2021/10/31 11:43:18;;;;;;;7.50;4.87;;;16.00;86.90;;;;;;5025233;28;20462;-42
2021/10/31 11:45:49;;;;;;;6.80;5.13;;;16.00;86.50;;;;;;5039336;28;20453;-42
2021/10/31 11:48:24;;;;;;;7.07;6.37;;;16.10;86.50;;;;;;5028802;28;20458;-42
2021/10/31 11:51:00;;;;;;;10.23;9.07;;;16.20;86.60;;;;;;5026101;28;20463;-42
2021/10/31 11:53:42;;;;;;;8.90;8.00;;;16.20;86.00;;;;;;5025661;28;20458;-42
2021/10/31 11:56:27;;;;;;;8.03;7.23;;;16.30;85.90;;;;;;5026385;28;20526;-42
2021/10/31 11:58:54;;;;;;;10.73;7.67;;;16.30;86.10;;;;;;5024732;28;20468;-42
2021/10/31 12:01:31;;;;;;;7.33;6.63;;;16.30;86.20;;;;;;5029035;28;20462;-42
2021/10/31 12:04:00;;;;;;;9.20;8.30;;;16.30;86.00;;;;;;5022416;28;21027;-42
2021/10/31 12:06:27;;;;;;;6.03;5.43;;;16.30;85.50;;;;;;5021624;28;20548;-42
2021/10/31 12:08:58;;;;;;;10.43;6.77;;;16.30;85.30;;;;;;5028092;28;20471;-42
2021/10/31 12:11:31;;;;;;;7.13;6.47;;;16.30;85.20;;;;;;5025641;28;20456;-42
2021/10/31 12:14:00;;;;;;;8.03;6.40;;;16.30;85.40;;;;;;5020727;28;20469;-43
2021/10/31 12:16:28;;;;;;;5.93;5.43;;;16.30;85.60;;;;;;5024612;28;20989;-43
2021/10/31 12:19:09;;;;;;;6.03;4.63;;;16.30;85.70;;;;;;5026726;28;20458;-43
2021/10/31 12:21:38;;;;;;;6.00;4.80;;;16.30;85.50;;;;;;5022832;28;20459;-43
2021/10/31 12:24:18;;;;;;;4.77;4.37;;;16.30;85.60;;;;;;5019381;28;20467;-43
2021/10/31 12:26:50;;;;;;;4.23;3.83;;;16.20;85.40;;;;;;5015899;28;20938;-43
2021/10/31 12:29:21;;;;;;;5.27;4.70;;;16.20;85.60;;;;;;5019265;28;20497;-43
2021/10/31 12:32:13;;;;;;;6.03;5.23;;;16.10;85.20;;;;;;5016937;28;20846;-43
2021/10/31 12:34:48;;;;;;;5.93;5.23;;;16.10;85.30;;;;;;5002259;28;20459;-43
2021/10/31 12:37:24;;;;;;;6.73;5.17;;;16.10;85.50;;;;;;5025615;28;21045;-43
2021/10/31 12:40:00;;;;;;;5.23;4.73;;;16.10;85.40;;;;;;5023007;28;20462;-43
2021/10/31 12:42:32;;;;;;;4.83;4.43;;;16.10;85.00;;;;;;5024036;28;20466;-43
2021/10/31 12:45:23;;;;;;;5.60;4.80;;;16.10;84.80;;;;;;5026143;28;20476;-43
2021/10/31 12:47:55;;;;;;;4.27;3.80;;;16.00;84.70;;;;;;5025426;28;20462;-43
2021/10/31 12:50:26;;;;;;;5.13;4.70;;;15.90;84.90;;;;;;5024852;28;20455;-43